Airport View

Enter AWOS ICAO identifier for current METAR.

ex. KFNL

KADS 031447Z 24005KT 10SM SKC 30/20 A3002

3 Jul 2020 15:46

Phone: 972-386-4855

Other Area AWOS: KDAL - KDFW - KRBD - KTKI

TAF AMD KDAL 031508Z 0315/0412 22007KT P6SM SCT160 SCT250 FM032000 18007KT P6SM VCTS SCT050CB SCT120 FM040000 16005KT P6SM SCT250